CFC3701 CYHZ-KHPN
Flight info
| Callsign | CFC3701 |
|---|---|
| Flight time | 1h 32m |
| Altitude | 40000 |
| Route | ACADN DCT DUVIN DCT ONEPS DCT NELIE VALRE1 |
| Aircraft | CL60/M-SBDE1E2E3FGHIJ1J4J5J7M3RWXYZ/LB1V1D1 |
Departure
| Time | 2026-04-21 01:14 |
|---|---|
| Airport | Halifax / Stanfield International Airport (CYHZ) |
Arrival
| Time | 2026-04-21 02:47 |
|---|---|
| Airport | Westchester County Airport (KHPN) |
| Time | Latitude | Longitude | Altitude | Speed | Heading |
|---|---|---|---|---|---|
| 2026-04-21 00:39 | 44.87502 | -63.52348 | 471 ft | 0 kts | 305° |
| 2026-04-21 01:07 | 44.87491 | -63.52362 | 472 ft | 6 kts | 121° |
| 2026-04-21 01:07 | 44.87472 | -63.52290 | 472 ft | 9 kts | 124° |
| 2026-04-21 01:08 | 44.87438 | -63.52215 | 472 ft | 7 kts | 111° |
| 2026-04-21 01:08 | 44.87477 | -63.52155 | 472 ft | 10 kts | 34° |
| 2026-04-21 01:08 | 44.87550 | -63.52083 | 471 ft | 14 kts | 35° |
| 2026-04-21 01:08 | 44.87648 | -63.51990 | 469 ft | 19 kts | 33° |
| 2026-04-21 01:09 | 44.87767 | -63.51873 | 467 ft | 22 kts | 36° |
| 2026-04-21 01:09 | 44.87903 | -63.51740 | 464 ft | 25 kts | 36° |
| 2026-04-21 01:09 | 44.88060 | -63.51583 | 457 ft | 30 kts | 35° |
| 2026-04-21 01:09 | 44.88241 | -63.51406 | 454 ft | 32 kts | 34° |
| 2026-04-21 01:10 | 44.88376 | -63.51263 | 457 ft | 14 kts | 40° |
| 2026-04-21 01:10 | 44.88448 | -63.51203 | 457 ft | 13 kts | 357° |
| 2026-04-21 01:10 | 44.88555 | -63.51230 | 456 ft | 17 kts | 349° |
| 2026-04-21 01:10 | 44.88671 | -63.51252 | 456 ft | 12 kts | 22° |
| 2026-04-21 01:11 | 44.88702 | -63.51126 | 456 ft | 15 kts | 81° |
| 2026-04-21 01:11 | 44.88721 | -63.50978 | 456 ft | 10 kts | 79° |
| 2026-04-21 01:11 | 44.88705 | -63.50874 | 458 ft | 12 kts | 121° |
| 2026-04-21 01:11 | 44.88686 | -63.50835 | 459 ft | 0 kts | 126° |
| 2026-04-21 01:12 | 44.88685 | -63.50834 | 459 ft | 2 kts | 126° |
| 2026-04-21 01:13 | 44.88634 | -63.50734 | 461 ft | 15 kts | 136° |
| 2026-04-21 01:13 | 44.88582 | -63.50735 | 463 ft | 0 kts | 211° |
| 2026-04-21 01:13 | 44.88520 | -63.50792 | 463 ft | 52 kts | 216° |
| 2026-04-21 01:13 | 44.87891 | -63.51409 | 462 ft | 156 kts | 215° |
| 2026-04-21 01:14 | 44.86920 | -63.52294 | 1048 ft | 186 kts | 214° |
| 2026-04-21 01:14 | 44.85786 | -63.53290 | 2045 ft | 203 kts | 214° |
| 2026-04-21 01:14 | 44.84576 | -63.54373 | 3205 ft | 216 kts | 215° |
| 2026-04-21 01:14 | 44.83321 | -63.55530 | 4398 ft | 222 kts | 215° |
| 2026-04-21 01:15 | 44.82008 | -63.56738 | 4919 ft | 224 kts | 215° |
| 2026-04-21 01:15 | 44.80681 | -63.57962 | 5021 ft | 231 kts | 215° |
| 2026-04-21 01:15 | 44.79307 | -63.59240 | 5014 ft | 237 kts | 215° |
| 2026-04-21 01:15 | 44.77947 | -63.60561 | 5017 ft | 238 kts | 217° |
| 2026-04-21 01:16 | 44.76509 | -63.61995 | 5142 ft | 265 kts | 217° |
| 2026-04-21 01:16 | 44.75103 | -63.63708 | 6510 ft | 271 kts | 236° |
| 2026-04-21 01:16 | 44.74426 | -63.65975 | 8314 ft | 260 kts | 255° |
| 2026-04-21 01:16 | 44.74038 | -63.67974 | 9691 ft | 258 kts | 254° |
| 2026-04-21 01:17 | 44.73565 | -63.70338 | 11279 ft | 258 kts | 252° |
| 2026-04-21 01:17 | 44.73085 | -63.72651 | 12705 ft | 259 kts | 250° |
| 2026-04-21 01:17 | 44.72571 | -63.75047 | 14032 ft | 262 kts | 248° |
| 2026-04-21 01:17 | 44.72026 | -63.77502 | 15340 ft | 264 kts | 246° |
| 2026-04-21 01:18 | 44.71473 | -63.79927 | 16584 ft | 264 kts | 246° |
| 2026-04-21 01:18 | 44.70906 | -63.82352 | 17770 ft | 263 kts | 245° |
| 2026-04-21 01:18 | 44.70338 | -63.84734 | 18860 ft | 262 kts | 243° |
| 2026-04-21 01:18 | 44.69745 | -63.87171 | 19865 ft | 266 kts | 243° |
| 2026-04-21 01:19 | 44.69156 | -63.89553 | 20771 ft | 270 kts | 243° |
| 2026-04-21 01:19 | 44.68533 | -63.92052 | 21624 ft | 276 kts | 242° |
| 2026-04-21 01:19 | 44.67894 | -63.94604 | 22521 ft | 279 kts | 241° |
| 2026-04-21 01:19 | 44.67243 | -63.97179 | 23255 ft | 286 kts | 240° |
| 2026-04-21 01:20 | 44.66562 | -63.99844 | 24062 ft | 290 kts | 239° |
| 2026-04-21 01:20 | 44.65831 | -64.02546 | 24850 ft | 292 kts | 238° |
| 2026-04-21 01:20 | 44.65071 | -64.05151 | 25677 ft | 291 kts | 236° |
| 2026-04-21 01:20 | 44.64285 | -64.07752 | 26477 ft | 291 kts | 236° |
| 2026-04-21 01:21 | 44.63502 | -64.10342 | 27310 ft | 289 kts | 236° |
| 2026-04-21 01:21 | 44.62705 | -64.12969 | 27982 ft | 291 kts | 236° |
| 2026-04-21 01:21 | 44.61891 | -64.15645 | 28628 ft | 293 kts | 235° |
| 2026-04-21 01:21 | 44.61077 | -64.18319 | 29279 ft | 295 kts | 235° |
| 2026-04-21 01:22 | 44.60259 | -64.21006 | 29807 ft | 299 kts | 234° |
| 2026-04-21 01:22 | 44.59439 | -64.23696 | 30381 ft | 301 kts | 235° |
| 2026-04-21 01:22 | 44.58602 | -64.26444 | 30959 ft | 303 kts | 234° |
| 2026-04-21 01:22 | 44.57747 | -64.29232 | 31306 ft | 311 kts | 234° |
| 2026-04-21 01:23 | 44.56880 | -64.32061 | 31713 ft | 315 kts | 236° |
| 2026-04-21 01:23 | 44.55996 | -64.34951 | 32057 ft | 319 kts | 236° |
| 2026-04-21 01:23 | 44.55108 | -64.37838 | 32323 ft | 325 kts | 236° |
| 2026-04-21 01:23 | 44.54194 | -64.40815 | 32709 ft | 329 kts | 237° |
| 2026-04-21 01:24 | 44.53288 | -64.43774 | 33164 ft | 328 kts | 237° |
| 2026-04-21 01:24 | 44.52410 | -64.46635 | 33525 ft | 329 kts | 237° |
| 2026-04-21 01:24 | 44.51766 | -64.48725 | 33712 ft | 332 kts | 236° |
| 2026-04-21 01:24 | 44.50875 | -64.51565 | 33846 ft | 340 kts | 237° |
| 2026-04-21 01:25 | 44.49927 | -64.54640 | 34192 ft | 342 kts | 238° |
| 2026-04-21 01:25 | 44.48975 | -64.57739 | 34474 ft | 344 kts | 239° |
| 2026-04-21 01:25 | 44.48018 | -64.60845 | 34786 ft | 346 kts | 239° |
| 2026-04-21 01:25 | 44.47115 | -64.63768 | 35060 ft | 348 kts | 239° |
| 2026-04-21 01:26 | 44.46247 | -64.66576 | 35365 ft | 348 kts | 238° |
| 2026-04-21 01:26 | 44.45239 | -64.69849 | 35654 ft | 351 kts | 238° |
| 2026-04-21 01:26 | 44.44257 | -64.73011 | 35886 ft | 354 kts | 239° |
| 2026-04-21 01:26 | 44.43279 | -64.76158 | 36202 ft | 354 kts | 239° |
| 2026-04-21 01:27 | 44.42290 | -64.79338 | 36451 ft | 356 kts | 239° |
| 2026-04-21 01:27 | 44.41289 | -64.82551 | 36696 ft | 357 kts | 239° |
| 2026-04-21 01:27 | 44.40270 | -64.85812 | 36893 ft | 360 kts | 240° |
| 2026-04-21 01:27 | 44.39267 | -64.89026 | 37115 ft | 361 kts | 240° |
| 2026-04-21 01:28 | 44.38279 | -64.92186 | 37290 ft | 364 kts | 240° |
| 2026-04-21 01:28 | 44.37244 | -64.95489 | 37456 ft | 367 kts | 240° |
| 2026-04-21 01:28 | 44.36202 | -64.98813 | 37655 ft | 368 kts | 240° |
| 2026-04-21 01:28 | 44.35175 | -65.02081 | 37833 ft | 370 kts | 241° |
| 2026-04-21 01:29 | 44.34134 | -65.05394 | 38068 ft | 371 kts | 241° |
| 2026-04-21 01:29 | 44.33085 | -65.08728 | 38336 ft | 371 kts | 241° |
| 2026-04-21 01:29 | 44.32070 | -65.11951 | 38595 ft | 370 kts | 241° |
| 2026-04-21 01:29 | 44.31016 | -65.15289 | 38798 ft | 371 kts | 241° |
| 2026-04-21 01:30 | 44.29974 | -65.18588 | 39041 ft | 371 kts | 242° |
| 2026-04-21 01:30 | 44.28950 | -65.21823 | 39265 ft | 370 kts | 242° |
| 2026-04-21 01:30 | 44.27905 | -65.25123 | 39428 ft | 371 kts | 242° |
| 2026-04-21 01:30 | 44.26849 | -65.28451 | 39614 ft | 372 kts | 241° |
| 2026-04-21 01:31 | 44.25781 | -65.31811 | 39765 ft | 373 kts | 242° |
| 2026-04-21 01:31 | 44.24731 | -65.35111 | 39942 ft | 373 kts | 242° |
| 2026-04-21 01:31 | 44.23661 | -65.38470 | 40095 ft | 373 kts | 242° |
| 2026-04-21 01:31 | 44.22604 | -65.41787 | 40210 ft | 375 kts | 242° |
| 2026-04-21 01:32 | 44.20441 | -65.48549 | 40204 ft | 384 kts | 242° |
| 2026-04-21 01:32 | 44.18227 | -65.55456 | 40192 ft | 391 kts | 242° |
| 2026-04-21 01:33 | 44.15980 | -65.62450 | 40205 ft | 398 kts | 242° |
| 2026-04-21 01:33 | 44.13671 | -65.69620 | 40203 ft | 404 kts | 241° |
| 2026-04-21 01:34 | 44.11364 | -65.76764 | 40206 ft | 409 kts | 242° |
| 2026-04-21 01:34 | 44.09002 | -65.84059 | 40220 ft | 412 kts | 242° |
| 2026-04-21 01:35 | 44.06661 | -65.91267 | 40230 ft | 415 kts | 242° |
| 2026-04-21 01:35 | 44.04253 | -65.98662 | 40222 ft | 418 kts | 242° |
| 2026-04-21 01:36 | 44.01901 | -66.05867 | 40228 ft | 420 kts | 242° |
| 2026-04-21 01:36 | 43.99551 | -66.13046 | 40233 ft | 421 kts | 242° |
| 2026-04-21 01:37 | 43.97089 | -66.20544 | 40236 ft | 423 kts | 242° |
| 2026-04-21 01:37 | 43.94686 | -66.27844 | 40232 ft | 423 kts | 242° |
| 2026-04-21 01:38 | 43.92227 | -66.35296 | 40233 ft | 423 kts | 242° |
| 2026-04-21 01:38 | 43.89843 | -66.42499 | 40235 ft | 423 kts | 242° |
| 2026-04-21 01:39 | 43.87343 | -66.50033 | 40234 ft | 423 kts | 243° |
| 2026-04-21 01:39 | 43.84891 | -66.57401 | 40237 ft | 423 kts | 242° |
| 2026-04-21 01:40 | 43.82418 | -66.64811 | 40240 ft | 423 kts | 243° |
| 2026-04-21 01:40 | 43.80229 | -66.71364 | 40229 ft | 424 kts | 242° |
| 2026-04-21 01:41 | 43.77741 | -66.78783 | 40234 ft | 423 kts | 242° |
| 2026-04-21 01:41 | 43.75226 | -66.86250 | 40250 ft | 422 kts | 242° |
| 2026-04-21 01:42 | 43.72762 | -66.93552 | 40257 ft | 423 kts | 242° |
| 2026-04-21 01:42 | 43.70368 | -67.00718 | 40255 ft | 425 kts | 245° |
| 2026-04-21 01:43 | 43.68218 | -67.08502 | 40250 ft | 426 kts | 246° |
| 2026-04-21 01:43 | 43.66121 | -67.16155 | 40252 ft | 425 kts | 246° |
| 2026-04-21 01:44 | 43.64021 | -67.23787 | 40254 ft | 425 kts | 246° |
| 2026-04-21 01:44 | 43.61950 | -67.31284 | 40254 ft | 425 kts | 246° |
| 2026-04-21 01:45 | 43.59813 | -67.38991 | 40253 ft | 425 kts | 246° |
| 2026-04-21 01:45 | 43.57682 | -67.46650 | 40254 ft | 425 kts | 246° |
| 2026-04-21 01:46 | 43.55558 | -67.54260 | 40254 ft | 425 kts | 246° |
| 2026-04-21 01:46 | 43.53407 | -67.61940 | 40258 ft | 425 kts | 246° |
| 2026-04-21 01:47 | 43.51289 | -67.69478 | 40257 ft | 425 kts | 245° |
| 2026-04-21 01:47 | 43.49220 | -67.76824 | 40254 ft | 425 kts | 245° |
| 2026-04-21 01:48 | 43.47112 | -67.84279 | 40257 ft | 425 kts | 246° |
| 2026-04-21 01:48 | 43.44942 | -67.91935 | 40256 ft | 425 kts | 246° |
| 2026-04-21 01:49 | 43.42773 | -67.99558 | 40257 ft | 425 kts | 246° |
| 2026-04-21 01:49 | 43.40648 | -68.07008 | 40254 ft | 425 kts | 246° |
| 2026-04-21 01:50 | 43.38467 | -68.14631 | 40261 ft | 425 kts | 245° |
| 2026-04-21 01:50 | 43.36322 | -68.22104 | 40260 ft | 426 kts | 246° |
| 2026-04-21 01:51 | 43.34129 | -68.29723 | 40263 ft | 426 kts | 246° |
| 2026-04-21 01:51 | 43.31918 | -68.37380 | 40266 ft | 427 kts | 246° |
| 2026-04-21 01:52 | 43.28704 | -68.48468 | 40269 ft | 427 kts | 246° |
| 2026-04-21 01:53 | 43.26578 | -68.55779 | 40268 ft | 428 kts | 246° |
| 2026-04-21 01:53 | 43.24348 | -68.63426 | 40269 ft | 429 kts | 246° |
| 2026-04-21 01:54 | 43.22228 | -68.70672 | 40274 ft | 429 kts | 245° |
| 2026-04-21 01:54 | 43.19973 | -68.78360 | 40278 ft | 429 kts | 245° |
| 2026-04-21 01:55 | 43.17734 | -68.85967 | 40277 ft | 429 kts | 245° |
| 2026-04-21 01:55 | 43.15821 | -68.92447 | 40277 ft | 430 kts | 245° |
| 2026-04-21 01:56 | 43.15110 | -68.94855 | 40264 ft | 430 kts | 245° |
| 2026-04-21 01:56 | 43.12883 | -69.02374 | 40275 ft | 430 kts | 245° |
| 2026-04-21 01:57 | 43.10690 | -69.09753 | 40281 ft | 431 kts | 245° |
| 2026-04-21 01:57 | 43.08473 | -69.17194 | 40280 ft | 431 kts | 245° |
| 2026-04-21 01:58 | 43.06254 | -69.24622 | 40280 ft | 432 kts | 245° |
| 2026-04-21 01:58 | 43.04030 | -69.32044 | 40280 ft | 432 kts | 245° |
| 2026-04-21 01:59 | 43.01748 | -69.39635 | 40279 ft | 432 kts | 245° |
| 2026-04-21 01:59 | 42.99444 | -69.47279 | 40279 ft | 432 kts | 246° |
| 2026-04-21 02:00 | 42.97157 | -69.54844 | 40275 ft | 432 kts | 246° |
| 2026-04-21 02:00 | 42.94854 | -69.62438 | 40271 ft | 432 kts | 246° |
| 2026-04-21 02:01 | 42.92578 | -69.69922 | 40276 ft | 433 kts | 245° |
| 2026-04-21 02:01 | 42.90220 | -69.77653 | 40277 ft | 433 kts | 245° |
| 2026-04-21 02:02 | 42.88015 | -69.84863 | 40277 ft | 433 kts | 245° |
| 2026-04-21 02:02 | 42.85686 | -69.92455 | 40279 ft | 433 kts | 245° |
| 2026-04-21 02:03 | 42.83373 | -69.99977 | 40278 ft | 433 kts | 245° |
| 2026-04-21 02:03 | 42.81059 | -70.07480 | 40281 ft | 433 kts | 245° |
| 2026-04-21 02:04 | 42.78772 | -70.14867 | 40287 ft | 432 kts | 245° |
| 2026-04-21 02:04 | 42.76453 | -70.22341 | 40289 ft | 433 kts | 246° |
| 2026-04-21 02:05 | 42.74108 | -70.29881 | 40287 ft | 433 kts | 246° |
| 2026-04-21 02:05 | 42.71745 | -70.37452 | 40286 ft | 434 kts | 246° |
| 2026-04-21 02:06 | 42.69379 | -70.45014 | 40286 ft | 433 kts | 246° |
| 2026-04-21 02:06 | 42.67020 | -70.52529 | 40289 ft | 434 kts | 246° |
| 2026-04-21 02:07 | 42.64652 | -70.60055 | 40291 ft | 434 kts | 246° |
| 2026-04-21 02:07 | 42.62276 | -70.67580 | 40291 ft | 434 kts | 245° |
| 2026-04-21 02:08 | 42.59877 | -70.75158 | 40293 ft | 434 kts | 246° |
| 2026-04-21 02:08 | 42.57480 | -70.82710 | 40299 ft | 434 kts | 246° |
| 2026-04-21 02:09 | 42.55109 | -70.90159 | 40292 ft | 434 kts | 246° |
| 2026-04-21 02:09 | 42.52696 | -70.97718 | 40286 ft | 435 kts | 246° |
| 2026-04-21 02:10 | 42.50261 | -71.05325 | 40293 ft | 435 kts | 246° |
| 2026-04-21 02:10 | 42.47837 | -71.12873 | 40290 ft | 435 kts | 246° |
| 2026-04-21 02:11 | 42.45411 | -71.20409 | 40300 ft | 434 kts | 246° |
| 2026-04-21 02:11 | 42.43076 | -71.27643 | 40281 ft | 423 kts | 246° |
| 2026-04-21 02:11 | 42.41898 | -71.31284 | 40048 ft | 414 kts | 246° |
| 2026-04-21 02:12 | 42.40747 | -71.34838 | 39797 ft | 404 kts | 246° |
| 2026-04-21 02:12 | 42.39628 | -71.38291 | 39549 ft | 396 kts | 246° |
| 2026-04-21 02:12 | 42.38527 | -71.41677 | 39297 ft | 389 kts | 247° |
| 2026-04-21 02:12 | 42.37447 | -71.44994 | 39051 ft | 389 kts | 247° |
| 2026-04-21 02:13 | 42.36353 | -71.48356 | 38803 ft | 388 kts | 247° |
| 2026-04-21 02:13 | 42.35255 | -71.51723 | 38553 ft | 388 kts | 247° |
| 2026-04-21 02:13 | 42.34166 | -71.55061 | 38308 ft | 388 kts | 247° |
| 2026-04-21 02:13 | 42.33133 | -71.58220 | 38080 ft | 388 kts | 247° |
| 2026-04-21 02:14 | 42.32078 | -71.61445 | 37841 ft | 388 kts | 247° |
| 2026-04-21 02:14 | 42.30983 | -71.64790 | 37595 ft | 388 kts | 247° |
| 2026-04-21 02:14 | 42.29960 | -71.67905 | 37383 ft | 389 kts | 246° |
| 2026-04-21 02:14 | 42.28866 | -71.71240 | 37139 ft | 389 kts | 246° |
| 2026-04-21 02:15 | 42.27752 | -71.74628 | 36887 ft | 390 kts | 246° |
| 2026-04-21 02:15 | 42.26739 | -71.77704 | 36661 ft | 390 kts | 246° |
| 2026-04-21 02:15 | 42.25629 | -71.81071 | 36412 ft | 391 kts | 247° |
| 2026-04-21 02:15 | 42.24526 | -71.84413 | 36166 ft | 391 kts | 247° |
| 2026-04-21 02:16 | 42.23414 | -71.87781 | 35918 ft | 391 kts | 247° |
| 2026-04-21 02:16 | 42.22292 | -71.91171 | 35667 ft | 392 kts | 247° |
| 2026-04-21 02:16 | 42.21190 | -71.94498 | 35421 ft | 392 kts | 247° |
| 2026-04-21 02:16 | 42.20070 | -71.97877 | 35167 ft | 392 kts | 247° |
| 2026-04-21 02:17 | 42.18944 | -72.01267 | 34918 ft | 393 kts | 247° |
| 2026-04-21 02:17 | 42.17820 | -72.04650 | 34670 ft | 393 kts | 247° |
| 2026-04-21 02:17 | 42.16715 | -72.07968 | 34422 ft | 393 kts | 247° |
| 2026-04-21 02:17 | 42.15587 | -72.11354 | 34175 ft | 394 kts | 247° |
| 2026-04-21 02:18 | 42.14454 | -72.14746 | 33922 ft | 394 kts | 247° |
| 2026-04-21 02:18 | 42.13301 | -72.17970 | 33687 ft | 395 kts | 245° |
| 2026-04-21 02:18 | 42.12055 | -72.21294 | 33435 ft | 394 kts | 245° |
| 2026-04-21 02:18 | 42.10825 | -72.24573 | 33067 ft | 396 kts | 245° |
| 2026-04-21 02:19 | 42.09587 | -72.27870 | 32645 ft | 395 kts | 245° |
| 2026-04-21 02:19 | 42.08339 | -72.31192 | 32180 ft | 394 kts | 246° |
| 2026-04-21 02:19 | 42.07142 | -72.34373 | 31715 ft | 394 kts | 246° |
| 2026-04-21 02:19 | 42.05958 | -72.37517 | 31234 ft | 394 kts | 246° |
| 2026-04-21 02:20 | 42.04705 | -72.40841 | 30707 ft | 394 kts | 246° |
| 2026-04-21 02:20 | 42.03465 | -72.44128 | 30226 ft | 394 kts | 246° |
| 2026-04-21 02:20 | 42.02287 | -72.47244 | 29663 ft | 390 kts | 246° |
| 2026-04-21 02:20 | 42.01059 | -72.50490 | 29041 ft | 384 kts | 246° |
| 2026-04-21 02:21 | 41.99873 | -72.53619 | 28464 ft | 377 kts | 246° |
| 2026-04-21 02:21 | 41.98686 | -72.56749 | 27927 ft | 369 kts | 246° |
| 2026-04-21 02:21 | 41.97537 | -72.59773 | 27432 ft | 360 kts | 246° |
| 2026-04-21 02:21 | 41.96403 | -72.62758 | 26948 ft | 351 kts | 246° |
| 2026-04-21 02:22 | 41.95305 | -72.65645 | 26505 ft | 345 kts | 245° |
| 2026-04-21 02:22 | 41.94201 | -72.68523 | 26042 ft | 344 kts | 244° |
| 2026-04-21 02:22 | 41.93024 | -72.71336 | 25575 ft | 342 kts | 243° |
| 2026-04-21 02:22 | 41.91836 | -72.74107 | 25113 ft | 340 kts | 243° |
| 2026-04-21 02:23 | 41.90659 | -72.76856 | 24659 ft | 338 kts | 242° |
| 2026-04-21 02:23 | 41.89476 | -72.79613 | 24201 ft | 334 kts | 242° |
| 2026-04-21 02:23 | 41.88450 | -72.82004 | 23827 ft | 330 kts | 242° |
| 2026-04-21 02:23 | 41.87294 | -72.84694 | 23372 ft | 329 kts | 242° |
| 2026-04-21 02:24 | 41.86157 | -72.87338 | 22946 ft | 326 kts | 242° |
| 2026-04-21 02:24 | 41.85012 | -72.90000 | 22480 ft | 326 kts | 242° |
| 2026-04-21 02:24 | 41.83888 | -72.92609 | 22084 ft | 323 kts | 243° |
| 2026-04-21 02:24 | 41.82753 | -72.95242 | 21630 ft | 323 kts | 243° |
| 2026-04-21 02:25 | 41.81629 | -72.97849 | 21205 ft | 320 kts | 243° |
| 2026-04-21 02:25 | 41.80513 | -73.00430 | 20760 ft | 319 kts | 243° |
| 2026-04-21 02:25 | 41.79398 | -73.03011 | 20355 ft | 317 kts | 243° |
| 2026-04-21 02:25 | 41.78339 | -73.05458 | 19934 ft | 316 kts | 243° |
| 2026-04-21 02:26 | 41.77231 | -73.08018 | 19513 ft | 315 kts | 243° |
| 2026-04-21 02:26 | 41.76125 | -73.10570 | 19093 ft | 313 kts | 243° |
| 2026-04-21 02:26 | 41.75019 | -73.13121 | 18680 ft | 311 kts | 243° |
| 2026-04-21 02:26 | 41.73942 | -73.15600 | 18266 ft | 309 kts | 243° |
| 2026-04-21 02:27 | 41.72849 | -73.18117 | 17650 ft | 312 kts | 243° |
| 2026-04-21 02:27 | 41.71756 | -73.20632 | 17200 ft | 307 kts | 243° |
| 2026-04-21 02:27 | 41.70674 | -73.23117 | 16732 ft | 303 kts | 243° |
| 2026-04-21 02:27 | 41.69789 | -73.25613 | 16341 ft | 296 kts | 251° |
| 2026-04-21 02:28 | 41.69014 | -73.28172 | 15920 ft | 292 kts | 251° |
| 2026-04-21 02:28 | 41.68240 | -73.30711 | 15540 ft | 289 kts | 251° |
| 2026-04-21 02:28 | 41.67478 | -73.33208 | 15157 ft | 290 kts | 251° |
| 2026-04-21 02:28 | 41.66708 | -73.35728 | 14772 ft | 289 kts | 250° |
| 2026-04-21 02:29 | 41.65939 | -73.38238 | 14376 ft | 288 kts | 250° |
| 2026-04-21 02:29 | 41.65179 | -73.40715 | 14008 ft | 285 kts | 250° |
| 2026-04-21 02:29 | 41.64425 | -73.43169 | 13603 ft | 284 kts | 250° |
| 2026-04-21 02:29 | 41.63661 | -73.45652 | 13262 ft | 282 kts | 250° |
| 2026-04-21 02:30 | 41.62918 | -73.48068 | 12861 ft | 283 kts | 250° |
| 2026-04-21 02:30 | 41.62169 | -73.50495 | 12483 ft | 279 kts | 250° |
| 2026-04-21 02:30 | 41.61422 | -73.52914 | 12130 ft | 279 kts | 250° |
| 2026-04-21 02:30 | 41.60666 | -73.55366 | 11738 ft | 278 kts | 250° |
| 2026-04-21 02:31 | 41.59993 | -73.57541 | 11405 ft | 277 kts | 250° |
| 2026-04-21 02:31 | 41.59258 | -73.59916 | 11047 ft | 274 kts | 250° |
| 2026-04-21 02:31 | 41.58528 | -73.62270 | 10691 ft | 274 kts | 251° |
| 2026-04-21 02:31 | 41.57589 | -73.64530 | 10317 ft | 276 kts | 237° |
| 2026-04-21 02:32 | 41.56447 | -73.66464 | 9959 ft | 275 kts | 234° |
| 2026-04-21 02:32 | 41.55247 | -73.68481 | 9577 ft | 275 kts | 234° |
| 2026-04-21 02:32 | 41.54132 | -73.70358 | 9240 ft | 274 kts | 234° |
| 2026-04-21 02:32 | 41.52935 | -73.72371 | 8868 ft | 274 kts | 234° |
| 2026-04-21 02:33 | 41.51808 | -73.74268 | 8522 ft | 274 kts | 234° |
| 2026-04-21 02:33 | 41.50615 | -73.76275 | 8149 ft | 274 kts | 234° |
| 2026-04-21 02:33 | 41.49414 | -73.78294 | 7787 ft | 273 kts | 233° |
| 2026-04-21 02:33 | 41.48313 | -73.80145 | 7454 ft | 273 kts | 234° |
| 2026-04-21 02:34 | 41.47214 | -73.81988 | 7117 ft | 273 kts | 234° |
| 2026-04-21 02:34 | 41.45978 | -73.83925 | 6732 ft | 275 kts | 225° |
| 2026-04-21 02:34 | 41.44356 | -73.85317 | 6245 ft | 278 kts | 203° |
| 2026-04-21 02:34 | 41.42488 | -73.85787 | 5911 ft | 274 kts | 180° |
| 2026-04-21 02:35 | 41.40601 | -73.85300 | 5588 ft | 275 kts | 157° |
| 2026-04-21 02:35 | 41.38946 | -73.84016 | 5384 ft | 273 kts | 144° |
| 2026-04-21 02:35 | 41.37361 | -73.82561 | 5198 ft | 277 kts | 144° |
| 2026-04-21 02:35 | 41.36546 | -73.81820 | 5090 ft | 277 kts | 144° |
| 2026-04-21 02:36 | 41.36431 | -73.81715 | 5076 ft | 277 kts | 144° |
| 2026-04-21 02:36 | 41.34833 | -73.80264 | 4883 ft | 276 kts | 144° |
| 2026-04-21 02:36 | 41.33228 | -73.78808 | 4683 ft | 275 kts | 144° |
| 2026-04-21 02:37 | 41.31640 | -73.77369 | 4488 ft | 275 kts | 144° |
| 2026-04-21 02:37 | 41.30058 | -73.75935 | 4285 ft | 275 kts | 144° |
| 2026-04-21 02:37 | 41.28461 | -73.74489 | 4091 ft | 274 kts | 144° |
| 2026-04-21 02:37 | 41.26920 | -73.73096 | 3898 ft | 273 kts | 144° |
| 2026-04-21 02:38 | 41.25349 | -73.71675 | 3699 ft | 272 kts | 144° |
| 2026-04-21 02:38 | 41.23763 | -73.70243 | 3507 ft | 272 kts | 143° |
| 2026-04-21 02:38 | 41.22178 | -73.68813 | 3306 ft | 272 kts | 143° |
| 2026-04-21 02:38 | 41.20614 | -73.67402 | 3108 ft | 267 kts | 143° |
| 2026-04-21 02:39 | 41.19103 | -73.66043 | 2929 ft | 255 kts | 143° |
| 2026-04-21 02:39 | 41.17656 | -73.64741 | 2750 ft | 244 kts | 143° |
| 2026-04-21 02:39 | 41.16273 | -73.63498 | 2579 ft | 235 kts | 144° |
| 2026-04-21 02:39 | 41.14920 | -73.62281 | 2409 ft | 228 kts | 143° |
| 2026-04-21 02:40 | 41.13609 | -73.61102 | 2230 ft | 227 kts | 144° |
| 2026-04-21 02:40 | 41.12291 | -73.59918 | 2071 ft | 225 kts | 144° |
| 2026-04-21 02:40 | 41.10972 | -73.58813 | 1993 ft | 217 kts | 147° |
| 2026-04-21 02:40 | 41.09708 | -73.57804 | 2002 ft | 209 kts | 147° |
| 2026-04-21 02:41 | 41.08454 | -73.56800 | 1991 ft | 207 kts | 147° |
| 2026-04-21 02:41 | 41.07275 | -73.55856 | 1979 ft | 207 kts | 147° |
| 2026-04-21 02:41 | 41.05988 | -73.54962 | 1936 ft | 207 kts | 157° |
| 2026-04-21 02:41 | 41.04630 | -73.54536 | 1846 ft | 189 kts | 176° |
| 2026-04-21 02:42 | 41.03368 | -73.54615 | 1893 ft | 179 kts | 191° |
| 2026-04-21 02:42 | 41.02215 | -73.55051 | 1791 ft | 175 kts | 206° |
| 2026-04-21 02:42 | 41.01169 | -73.55859 | 1780 ft | 171 kts | 221° |
| 2026-04-21 02:42 | 41.00316 | -73.56947 | 1713 ft | 167 kts | 236° |
| 2026-04-21 02:43 | 40.99702 | -73.58230 | 1686 ft | 163 kts | 249° |
| 2026-04-21 02:43 | 40.99326 | -73.59638 | 1631 ft | 159 kts | 262° |
| 2026-04-21 02:43 | 40.99200 | -73.61089 | 1600 ft | 155 kts | 274° |
| 2026-04-21 02:43 | 40.99309 | -73.62500 | 1549 ft | 152 kts | 286° |
| 2026-04-21 02:44 | 40.99633 | -73.63817 | 1516 ft | 149 kts | 297° |
| 2026-04-21 02:44 | 41.00156 | -73.65017 | 1478 ft | 148 kts | 308° |
| 2026-04-21 02:44 | 41.00846 | -73.66033 | 1430 ft | 146 kts | 319° |
| 2026-04-21 02:44 | 41.01649 | -73.66818 | 1404 ft | 132 kts | 329° |
| 2026-04-21 02:45 | 41.02413 | -73.67400 | 1263 ft | 121 kts | 331° |
| 2026-04-21 02:45 | 41.03015 | -73.67856 | 1120 ft | 115 kts | 330° |
| 2026-04-21 02:45 | 41.03714 | -73.68390 | 957 ft | 113 kts | 330° |
| 2026-04-21 02:45 | 41.04398 | -73.68913 | 774 ft | 112 kts | 329° |
| 2026-04-21 02:46 | 41.05075 | -73.69431 | 627 ft | 113 kts | 329° |
| 2026-04-21 02:46 | 41.05764 | -73.69958 | 475 ft | 113 kts | 329° |
| 2026-04-21 02:46 | 41.06438 | -73.70478 | 392 ft | 101 kts | 329° |
| 2026-04-21 02:46 | 41.06861 | -73.70804 | 411 ft | 52 kts | 329° |
| 2026-04-21 02:47 | 41.07062 | -73.70959 | 417 ft | 7 kts | 322° |
| 2026-04-21 02:47 | 41.07058 | -73.71023 | 417 ft | 10 kts | 220° |
| 2026-04-21 02:47 | 41.06977 | -73.71096 | 413 ft | 17 kts | 214° |
| 2026-04-21 02:47 | 41.06858 | -73.71205 | 407 ft | 24 kts | 213° |
| 2026-04-21 02:48 | 41.06699 | -73.71343 | 401 ft | 29 kts | 213° |
| 2026-04-21 02:48 | 41.06553 | -73.71441 | 402 ft | 14 kts | 141° |
| 2026-04-21 02:48 | 41.06522 | -73.71298 | 404 ft | 17 kts | 102° |
| 2026-04-21 02:48 | 41.06494 | -73.71119 | 404 ft | 21 kts | 102° |
| 2026-04-21 02:49 | 41.06459 | -73.70914 | 402 ft | 10 kts | 103° |
| 2026-04-21 02:49 | 41.06395 | -73.70869 | 399 ft | 7 kts | 163° |
| 2026-04-21 02:49 | 41.06347 | -73.70865 | 398 ft | 4 kts | 199° |
| 2026-04-21 02:49 | 41.06343 | -73.70866 | 398 ft | 0 kts | 199° |